Time;durP1;ratioP1;P1;durP2;ratioP2;P2;SDS_P1;SDS_P2;PMS_P1;PMS_P2;Temp;Humidity;BMP_temperature;BMP_pressure;BME280_temperature;BME280_humidity;BME280_pressure;Samples;Min_cycle;Max_cycle;Signal;HPM_P1;HPM_P2
2022/07/13 00:00:41;;;;;;;3.30;2.58;;;20.00;99.90;;;;;;4968432;28;20253;-72
2022/07/13 00:03:08;;;;;;;3.37;2.70;;;20.00;99.90;;;;;;4966036;28;20597;-75
2022/07/13 00:05:35;;;;;;;3.13;2.40;;;20.00;99.90;;;;;;4965561;28;20214;-72
2022/07/13 00:08:01;;;;;;;3.97;2.80;;;20.20;99.90;;;;;;4970999;28;20591;-72
2022/07/13 00:10:28;;;;;;;2.90;2.47;;;20.20;99.90;;;;;;4962680;28;20198;-74
2022/07/13 00:12:54;;;;;;;3.57;2.70;;;20.20;99.90;;;;;;4966491;28;20197;-76
2022/07/13 00:15:22;;;;;;;3.30;2.57;;;20.30;99.90;;;;;;4967319;28;20272;-75
2022/07/13 00:17:48;;;;;;;2.90;2.30;;;20.10;99.90;;;;;;4965954;28;20218;-72
2022/07/13 00:20:15;;;;;;;2.83;2.20;;;20.10;99.90;;;;;;4966412;28;20194;-72
2022/07/13 00:22:42;;;;;;;2.77;2.20;;;20.10;99.90;;;;;;4968112;28;20194;-72
2022/07/13 00:25:08;;;;;;;3.40;2.43;;;20.00;99.90;;;;;;4965728;28;20221;-73
2022/07/13 00:27:35;;;;;;;3.47;2.10;;;20.00;99.90;;;;;;4970594;28;20284;-75
2022/07/13 00:30:02;;;;;;;3.25;2.22;;;20.00;99.90;;;;;;4957123;28;20687;-73
2022/07/13 00:32:29;;;;;;;2.73;2.37;;;20.00;99.90;;;;;;4967582;28;20197;-72
2022/07/13 00:34:55;;;;;;;2.63;2.20;;;20.00;99.90;;;;;;4963849;28;20725;-72
2022/07/13 00:37:22;;;;;;;2.28;1.90;;;20.00;99.90;;;;;;4963632;28;20206;-72
2022/07/13 00:39:49;;;;;;;2.63;2.30;;;20.00;99.90;;;;;;4967294;28;20209;-74
2022/07/13 00:42:15;;;;;;;2.93;2.00;;;20.00;99.90;;;;;;4965861;28;20204;-72
2022/07/13 00:44:42;;;;;;;2.43;2.20;;;20.00;99.90;;;;;;4968914;28;20248;-72
2022/07/13 00:47:10;;;;;;;2.50;2.10;;;20.00;99.90;;;;;;4961056;28;20747;-72
2022/07/13 00:49:37;;;;;;;3.33;2.00;;;20.10;99.90;;;;;;4965589;28;20217;-73
2022/07/13 00:52:04;;;;;;;3.70;2.10;;;20.10;99.90;;;;;;4969843;28;20193;-73
2022/07/13 00:54:31;;;;;;;2.42;2.15;;;20.20;99.90;;;;;;4966709;28;20189;-73
2022/07/13 00:57:01;;;;;;;2.80;2.40;;;20.10;99.90;;;;;;4966400;28;20261;-72
2022/07/13 00:59:27;;;;;;;5.40;2.50;;;20.20;99.90;;;;;;4967609;28;20221;-74
2022/07/13 01:01:54;;;;;;;3.03;2.58;;;20.40;99.90;;;;;;4966513;28;20201;-71
2022/07/13 01:04:23;;;;;;;2.50;2.30;;;20.50;99.90;;;;;;4967101;28;20294;-72
2022/07/13 01:06:54;;;;;;;4.37;2.10;;;20.60;99.90;;;;;;4964209;28;20268;-72
2022/07/13 01:09:23;;;;;;;2.90;2.38;;;20.40;99.90;;;;;;4970012;28;20217;-72
2022/07/13 01:11:51;;;;;;;3.17;2.23;;;20.20;99.90;;;;;;4968308;28;20197;-72
2022/07/13 01:14:18;;;;;;;2.00;1.80;;;20.10;99.90;;;;;;4967497;28;20202;-72
2022/07/13 01:16:46;;;;;;;4.17;2.50;;;20.00;99.90;;;;;;4964345;28;20208;-72
2022/07/13 01:19:13;;;;;;;2.60;2.40;;;20.00;99.90;;;;;;4967685;28;20612;-71
2022/07/13 01:21:45;;;;;;;4.13;2.20;;;20.10;99.90;;;;;;4963800;28;20205;-75
2022/07/13 01:24:13;;;;;;;3.40;2.10;;;20.30;99.90;;;;;;4964653;28;20696;-73
2022/07/13 01:26:40;;;;;;;3.30;2.30;;;20.30;99.90;;;;;;4968369;28;20218;-72
2022/07/13 01:29:08;;;;;;;4.30;2.17;;;20.20;99.90;;;;;;4965973;28;20613;-74
2022/07/13 01:31:36;;;;;;;2.90;2.50;;;20.20;99.90;;;;;;4966494;28;20217;-76
2022/07/13 01:34:03;;;;;;;2.57;2.17;;;20.20;99.90;;;;;;4959467;28;20205;-74
2022/07/13 01:36:31;;;;;;;3.60;2.50;;;20.10;99.90;;;;;;4965689;28;20260;-72
2022/07/13 01:38:58;;;;;;;2.20;1.97;;;19.90;99.90;;;;;;4960700;28;20234;-72
2022/07/13 01:41:26;;;;;;;2.63;2.17;;;19.80;99.90;;;;;;4968356;28;20204;-72
2022/07/13 01:43:53;;;;;;;3.17;2.10;;;19.80;99.90;;;;;;4958349;28;20198;-75
2022/07/13 01:46:20;;;;;;;2.70;2.20;;;19.80;99.90;;;;;;4965042;28;20217;-72
2022/07/13 01:48:46;;;;;;;1.90;1.80;;;19.80;99.90;;;;;;4963236;28;20218;-75
2022/07/13 01:51:13;;;;;;;3.47;2.00;;;19.70;99.90;;;;;;4967691;28;20663;-72
2022/07/13 01:53:40;;;;;;;2.47;2.10;;;19.70;99.90;;;;;;4966259;28;20191;-75
2022/07/13 01:56:07;;;;;;;2.43;1.90;;;19.70;99.90;;;;;;4964025;28;20205;-73
2022/07/13 01:58:34;;;;;;;2.43;2.10;;;19.60;99.90;;;;;;4967809;28;20220;-74
2022/07/13 02:01:01;;;;;;;4.67;2.17;;;19.60;99.90;;;;;;4966812;28;20214;-72
2022/07/13 02:03:31;;;;;;;2.40;2.20;;;19.60;99.90;;;;;;4969647;28;20201;-73
2022/07/13 02:05:59;;;;;;;3.40;2.17;;;19.80;99.90;;;;;;4969751;28;20209;-73
2022/07/13 02:08:26;;;;;;;2.30;2.07;;;19.70;99.90;;;;;;4966732;28;20214;-73
2022/07/13 02:10:53;;;;;;;2.73;2.07;;;19.70;99.90;;;;;;4969271;28;20286;-74
2022/07/13 02:13:21;;;;;;;2.80;2.33;;;19.70;99.90;;;;;;4968947;28;20194;-75
2022/07/13 02:15:48;;;;;;;3.23;2.10;;;19.70;99.90;;;;;;4966803;28;20698;-73
2022/07/13 02:18:15;;;;;;;2.60;2.30;;;19.80;99.90;;;;;;4964489;28;20230;-72
2022/07/13 02:20:42;;;;;;;2.47;2.10;;;19.80;99.90;;;;;;4968109;28;20200;-75
2022/07/13 02:23:08;;;;;;;4.47;2.40;;;19.80;99.90;;;;;;4966792;28;20209;-72
2022/07/13 02:25:37;;;;;;;4.23;2.93;;;19.90;99.90;;;;;;4972909;28;20677;-72
2022/07/13 02:28:06;;;;;;;3.07;1.93;;;19.90;99.90;;;;;;4970799;28;20222;-74
2022/07/13 02:30:33;;;;;;;4.17;2.73;;;19.80;99.90;;;;;;4970609;28;20197;-72
2022/07/13 02:33:00;;;;;;;4.10;1.90;;;19.80;99.90;;;;;;4968844;28;20241;-74
2022/07/13 02:35:27;;;;;;;2.73;2.23;;;19.80;99.90;;;;;;4968567;28;20240;-72
2022/07/13 02:37:53;;;;;;;2.10;1.90;;;19.70;99.90;;;;;;4967922;28;20221;-72
2022/07/13 02:40:21;;;;;;;4.37;2.20;;;19.60;99.90;;;;;;4969336;28;20205;-73
2022/07/13 02:42:48;;;;;;;3.20;2.07;;;19.60;99.90;;;;;;4969230;28;20190;-72
2022/07/13 02:45:14;;;;;;;2.73;1.90;;;19.60;99.90;;;;;;4970616;28;20205;-76
2022/07/13 02:47:41;;;;;;;3.50;2.27;;;19.60;99.90;;;;;;4965711;28;20300;-72
2022/07/13 02:50:08;;;;;;;3.17;2.20;;;19.60;99.90;;;;;;4964159;28;20205;-72
2022/07/13 02:52:34;;;;;;;2.20;2.00;;;19.50;99.90;;;;;;4971831;28;20202;-72
2022/07/13 02:55:01;;;;;;;2.40;2.07;;;19.50;99.90;;;;;;4963042;28;20550;-73
2022/07/13 02:57:27;;;;;;;4.60;2.30;;;19.50;99.90;;;;;;4968866;28;20197;-72
2022/07/13 02:59:54;;;;;;;4.30;1.83;;;19.50;99.90;;;;;;4970851;28;20201;-72
2022/07/13 03:02:21;;;;;;;2.47;2.10;;;19.50;99.90;;;;;;4967049;28;20228;-75
2022/07/13 03:04:47;;;;;;;4.30;2.33;;;19.50;99.90;;;;;;4967722;28;20208;-74
2022/07/13 03:07:15;;;;;;;3.30;2.30;;;19.40;99.90;;;;;;4967557;28;20224;-72
2022/07/13 03:09:42;;;;;;;2.47;2.23;;;19.50;99.90;;;;;;4966781;28;20279;-72
2022/07/13 03:12:09;;;;;;;3.43;2.10;;;19.50;99.90;;;;;;4966173;28;20202;-74
2022/07/13 03:14:36;;;;;;;4.43;2.67;;;19.50;99.90;;;;;;4966092;28;20197;-75
2022/07/13 03:17:02;;;;;;;2.83;2.30;;;19.50;99.90;;;;;;4968711;28;20198;-72
2022/07/13 03:19:30;;;;;;;3.00;2.60;;;19.60;99.90;;;;;;4966340;28;20268;-74
2022/07/13 03:21:56;;;;;;;4.27;2.17;;;19.50;99.90;;;;;;4966823;28;20209;-72
2022/07/13 03:24:23;;;;;;;2.97;2.67;;;19.70;99.90;;;;;;4970056;28;20205;-72
2022/07/13 03:26:50;;;;;;;3.17;2.47;;;19.90;99.90;;;;;;4968230;28;20229;-72
2022/07/13 03:29:16;;;;;;;3.20;2.37;;;19.90;99.90;;;;;;4970249;28;20228;-75
2022/07/13 03:31:43;;;;;;;4.20;2.27;;;19.90;99.90;;;;;;4965281;28;20194;-72
2022/07/13 03:34:10;;;;;;;4.00;2.30;;;19.70;99.90;;;;;;4966158;28;20260;-73
2022/07/13 03:36:36;;;;;;;2.97;2.60;;;19.60;99.90;;;;;;4971477;28;20198;-72
2022/07/13 03:39:03;;;;;;;2.67;2.27;;;19.50;99.90;;;;;;4966171;28;20639;-74
2022/07/13 03:41:30;;;;;;;2.80;2.13;;;19.50;99.90;;;;;;4963054;28;20212;-72
2022/07/13 03:43:56;;;;;;;3.17;2.60;;;19.50;99.90;;;;;;4969908;28;20210;-72
2022/07/13 03:46:23;;;;;;;2.93;2.30;;;19.50;99.90;;;;;;4964424;28;20205;-72
2022/07/13 03:48:49;;;;;;;7.47;2.50;;;19.50;99.90;;;;;;4962372;28;20308;-73
2022/07/13 03:51:16;;;;;;;4.50;2.70;;;19.50;99.90;;;;;;4967441;28;20205;-75
2022/07/13 03:53:43;;;;;;;3.77;2.53;;;19.40;99.90;;;;;;4965232;28;20201;-73
2022/07/13 03:56:09;;;;;;;6.93;2.70;;;19.40;99.90;;;;;;4967804;28;20639;-72
2022/07/13 03:58:36;;;;;;;2.50;2.30;;;19.50;99.90;;;;;;4965790;28;20437;-73
2022/07/13 04:01:03;;;;;;;5.80;2.57;;;19.60;99.90;;;;;;4967739;28;20211;-73
2022/07/13 04:03:29;;;;;;;5.27;2.40;;;19.70;99.90;;;;;;4961772;28;20205;-73
2022/07/13 04:05:56;;;;;;;2.50;2.30;;;19.80;99.90;;;;;;4961270;28;20216;-74
2022/07/13 04:08:23;;;;;;;2.47;2.27;;;19.80;99.90;;;;;;4965985;28;20237;-74
2022/07/13 04:10:49;;;;;;;3.70;2.40;;;19.90;99.90;;;;;;4964708;28;20202;-72
2022/07/13 04:13:16;;;;;;;3.20;2.33;;;19.90;99.90;;;;;;4969534;28;20309;-72
2022/07/13 04:15:42;;;;;;;2.20;2.00;;;19.90;99.90;;;;;;4961626;28;20678;-72
2022/07/13 04:18:09;;;;;;;2.97;1.97;;;19.80;99.90;;;;;;4969291;28;20232;-74
2022/07/13 04:20:36;;;;;;;2.30;2.10;;;19.80;99.90;;;;;;4965057;28;20669;-70
2022/07/13 04:23:02;;;;;;;2.30;2.10;;;19.90;99.90;;;;;;4966019;28;20264;-72
2022/07/13 04:25:29;;;;;;;3.60;2.13;;;20.00;99.90;;;;;;4968007;28;20759;-72
2022/07/13 04:27:56;;;;;;;2.90;2.27;;;20.10;99.90;;;;;;4965618;28;20284;-73
2022/07/13 04:30:22;;;;;;;2.97;2.30;;;20.20;99.90;;;;;;4966651;28;20194;-74
2022/07/13 04:32:49;;;;;;;2.67;2.20;;;20.20;99.90;;;;;;4959537;28;20193;-72
2022/07/13 04:35:16;;;;;;;3.10;2.17;;;20.20;99.90;;;;;;4964717;28;20701;-75
2022/07/13 04:37:45;;;;;;;3.67;2.10;;;20.20;99.90;;;;;;4963370;28;20225;-73
2022/07/13 04:40:12;;;;;;;5.27;2.47;;;20.20;99.90;;;;;;4965510;28;20210;-75
2022/07/13 04:42:38;;;;;;;2.42;2.03;;;20.30;99.90;;;;;;4962888;28;20202;-73
2022/07/13 04:45:05;;;;;;;4.03;2.00;;;20.40;99.90;;;;;;4969587;28;20206;-72
2022/07/13 04:47:33;;;;;;;3.63;2.30;;;20.50;99.90;;;;;;4966452;28;20217;-72
2022/07/13 04:50:00;;;;;;;3.72;2.28;;;20.60;99.90;;;;;;4960549;28;20202;-73
2022/07/13 04:52:27;;;;;;;3.83;2.53;;;20.70;99.90;;;;;;4969808;28;20280;-73
2022/07/13 04:54:53;;;;;;;2.53;2.03;;;20.80;99.90;;;;;;4966712;28;20217;-72
2022/07/13 04:57:22;;;;;;;3.08;2.05;;;21.00;99.90;;;;;;4959505;28;20670;-73
2022/07/13 04:59:48;;;;;;;3.17;2.30;;;21.00;99.90;;;;;;4965795;28;20197;-74
2022/07/13 05:02:15;;;;;;;2.22;1.92;;;20.90;99.90;;;;;;4962245;28;20249;-73
2022/07/13 05:04:42;;;;;;;2.55;2.17;;;21.00;99.90;;;;;;4965535;28;20232;-72
2022/07/13 05:07:08;;;;;;;3.35;1.98;;;21.00;99.90;;;;;;4957011;28;20608;-73
2022/07/13 05:09:35;;;;;;;2.90;2.40;;;21.00;99.90;;;;;;4966944;28;20217;-75
2022/07/13 05:12:02;;;;;;;3.60;2.20;;;21.00;99.90;;;;;;4961045;28;20198;-72
2022/07/13 05:14:29;;;;;;;5.05;2.40;;;21.00;99.90;;;;;;4964709;28;20217;-73
2022/07/13 05:16:55;;;;;;;4.25;2.50;;;21.10;99.90;;;;;;4960051;28;20277;-73
2022/07/13 05:19:22;;;;;;;2.83;1.80;;;21.20;99.90;;;;;;4961223;28;20218;-72
2022/07/13 05:21:49;;;;;;;4.15;2.28;;;21.30;99.90;;;;;;4964432;28;20213;-71
2022/07/13 05:24:15;;;;;;;2.60;2.10;;;21.40;99.90;;;;;;4960620;28;20202;-71
2022/07/13 05:26:42;;;;;;;4.22;2.50;;;21.60;99.90;;;;;;4963562;28;20217;-72
2022/07/13 05:29:09;;;;;;;8.90;2.40;;;21.80;99.90;;;;;;4961478;28;20217;-70
2022/07/13 05:31:35;;;;;;;3.17;1.98;;;21.90;99.90;;;;;;4967789;28;20206;-72
2022/07/13 05:34:03;;;;;;;2.30;2.00;;;21.90;99.90;;;;;;4954058;28;20202;-73
2022/07/13 05:36:29;;;;;;;4.85;2.00;;;22.00;99.90;;;;;;4967995;28;20697;-72
2022/07/13 05:38:56;;;;;;;3.33;2.05;;;22.00;99.90;;;;;;4973697;28;20225;-71
2022/07/13 05:41:23;;;;;;;2.30;2.10;;;22.20;99.90;;;;;;4970417;28;20203;-72
2022/07/13 05:43:49;;;;;;;2.17;1.80;;;22.10;99.90;;;;;;4969382;28;20202;-71
2022/07/13 05:46:16;;;;;;;7.72;2.20;;;22.10;99.90;;;;;;4972227;28;20205;-71
2022/07/13 05:48:43;;;;;;;4.00;2.00;;;22.30;99.90;;;;;;4965636;28;20308;-71
2022/07/13 05:51:09;;;;;;;2.17;1.98;;;22.30;99.90;;;;;;4967608;28;20233;-70
2022/07/13 05:53:56;;;;;;;2.58;1.98;;;22.30;99.90;;;;;;4965664;28;20205;-72
2022/07/13 05:56:23;;;;;;;4.82;2.17;;;22.30;99.90;;;;;;4972374;28;20194;-73
2022/07/13 05:58:49;;;;;;;3.40;1.55;;;22.40;99.90;;;;;;4959546;28;20710;-72
2022/07/13 06:01:16;;;;;;;3.05;1.92;;;22.60;99.90;;;;;;4964714;28;20264;-73
2022/07/13 06:03:43;;;;;;;3.63;2.13;;;22.70;99.90;;;;;;4961403;28;20195;-72
2022/07/13 06:06:10;;;;;;;9.05;2.05;;;22.80;99.90;;;;;;4962960;28;20201;-74
2022/07/13 06:08:37;;;;;;;4.10;2.15;;;22.80;99.90;;;;;;4957237;28;20230;-73
2022/07/13 06:11:04;;;;;;;10.15;2.42;;;22.90;99.90;;;;;;4960625;28;20209;-74
2022/07/13 06:13:31;;;;;;;4.30;1.95;;;23.10;99.90;;;;;;4961089;28;20280;-72
2022/07/13 06:15:59;;;;;;;3.78;2.00;;;23.20;99.90;;;;;;4959922;28;20194;-72
2022/07/13 06:18:26;;;;;;;3.80;1.80;;;23.40;99.90;;;;;;4958815;28;20224;-70
2022/07/13 06:20:53;;;;;;;4.65;1.85;;;23.60;99.90;;;;;;4957129;28;20209;-72
2022/07/13 06:23:21;;;;;;;5.13;1.70;;;23.70;99.90;;;;;;4964417;28;20206;-73
2022/07/13 06:25:48;;;;;;;6.38;2.00;;;23.90;99.90;;;;;;4962780;28;20197;-73
2022/07/13 06:28:14;;;;;;;3.20;2.00;;;24.00;99.90;;;;;;4967034;28;20241;-73
2022/07/13 06:30:41;;;;;;;10.23;2.15;;;24.10;99.90;;;;;;4958513;28;20202;-74
2022/07/13 06:33:08;;;;;;;5.05;2.17;;;23.90;99.90;;;;;;4958021;28;20206;-72
2022/07/13 06:35:34;;;;;;;4.25;1.77;;;24.10;99.90;;;;;;4956652;28;20227;-73
2022/07/13 06:38:01;;;;;;;3.25;1.95;;;24.40;99.90;;;;;;4963321;28;20234;-74
2022/07/13 06:40:28;;;;;;;3.17;1.80;;;24.80;99.90;;;;;;4963061;28;20265;-73
2022/07/13 06:42:55;;;;;;;5.47;1.92;;;25.00;99.90;;;;;;4962924;28;20225;-73
2022/07/13 06:45:22;;;;;;;4.22;1.90;;;25.20;99.90;;;;;;4963090;28;20202;-74
2022/07/13 06:47:50;;;;;;;6.93;2.15;;;25.40;99.90;;;;;;4957056;28;20281;-72
2022/07/13 06:50:16;;;;;;;2.33;1.90;;;25.30;99.90;;;;;;4966159;28;20205;-73
2022/07/13 06:52:44;;;;;;;4.50;1.90;;;25.20;99.90;;;;;;4963121;28;20202;-73
2022/07/13 06:55:11;;;;;;;4.00;2.05;;;25.20;99.90;;;;;;4958977;28;20201;-73
2022/07/13 06:57:38;;;;;;;4.10;1.90;;;25.10;99.90;;;;;;4953617;28;20205;-73
2022/07/13 07:00:06;;;;;;;6.20;2.20;;;25.30;99.90;;;;;;4953574;28;20201;-72
2022/07/13 07:02:33;;;;;;;2.85;1.70;;;25.50;99.90;;;;;;4962719;28;20209;-73
2022/07/13 07:04:59;;;;;;;3.85;1.80;;;25.70;99.90;;;;;;4959337;28;20717;-73
2022/07/13 07:07:26;;;;;;;4.70;2.30;;;26.00;99.90;;;;;;4954587;28;20226;-72
2022/07/13 07:09:53;;;;;;;4.18;2.20;;;26.40;99.90;;;;;;4956707;28;20554;-72
2022/07/13 07:12:19;;;;;;;6.18;2.50;;;26.80;99.90;;;;;;4960749;28;20202;-72
2022/07/13 07:14:46;;;;;;;3.55;2.00;;;27.60;99.90;;;;;;4963991;28;20201;-75
2022/07/13 07:17:13;;;;;;;4.95;2.28;;;28.50;99.90;;;;;;4962448;28;20224;-73
2022/07/13 07:19:40;;;;;;;4.68;2.00;;;29.50;99.90;;;;;;4965492;28;20209;-73
2022/07/13 07:22:07;;;;;;;3.95;2.20;;;29.40;99.90;;;;;;4955618;28;20206;-72
2022/07/13 07:24:33;;;;;;;7.38;2.45;;;28.90;99.90;;;;;;4961568;28;20198;-72
2022/07/13 07:27:02;;;;;;;5.55;2.40;;;28.50;99.90;;;;;;4963227;28;20621;-72
2022/07/13 07:29:28;;;;;;;3.83;2.10;;;28.40;99.90;;;;;;4960428;28;20249;-75
2022/07/13 07:31:55;;;;;;;2.83;1.88;;;28.30;99.90;;;;;;4958617;28;20198;-73
2022/07/13 07:34:30;;;;;;;3.95;2.10;;;28.20;99.90;;;;;;4963678;28;20205;-72
2022/07/13 07:36:56;;;;;;;4.20;2.30;;;28.20;99.90;;;;;;4958432;28;20198;-73
2022/07/13 07:39:23;;;;;;;3.85;2.40;;;28.20;99.90;;;;;;4955971;28;20233;-72
2022/07/13 07:41:50;;;;;;;5.55;2.40;;;28.40;99.90;;;;;;4954128;28;20198;-73
2022/07/13 07:44:18;;;;;;;4.43;2.10;;;28.50;99.90;;;;;;4952463;28;20202;-73
2022/07/13 07:46:52;;;;;;;2.78;2.20;;;28.30;99.90;;;;;;4957259;28;20238;-72
2022/07/13 07:49:18;;;;;;;4.85;2.03;;;28.40;99.90;;;;;;4959636;28;20268;-71
2022/07/13 07:51:45;;;;;;;3.03;1.80;;;28.50;99.90;;;;;;4954562;28;20202;-73
2022/07/13 07:54:32;;;;;;;6.00;1.88;;;28.60;99.90;;;;;;4959260;28;20257;-72
2022/07/13 07:56:58;;;;;;;5.97;2.00;;;28.80;99.90;;;;;;4958006;28;20204;-73
2022/07/13 07:59:26;;;;;;;6.70;1.80;;;28.90;99.90;;;;;;4959837;28;20225;-72
2022/07/13 08:01:53;;;;;;;4.70;2.15;;;28.80;99.90;;;;;;4968274;28;20202;-72
2022/07/13 08:04:20;;;;;;;4.00;2.30;;;28.60;99.90;;;;;;4958454;28;20289;-73
2022/07/13 08:06:47;;;;;;;5.55;1.77;;;28.50;99.90;;;;;;4959527;28;20326;-70
2022/07/13 08:09:14;;;;;;;2.83;1.75;;;28.50;99.90;;;;;;4956032;28;20232;-74
2022/07/13 08:11:40;;;;;;;3.88;1.75;;;28.20;99.90;;;;;;4957105;28;20194;-73
2022/07/13 08:14:08;;;;;;;2.67;1.70;;;28.10;99.90;;;;;;4955008;28;20195;-73
2022/07/13 08:16:35;;;;;;;3.95;1.90;;;28.20;99.90;;;;;;4959628;28;20194;-72
2022/07/13 08:19:02;;;;;;;4.90;1.52;;;28.10;99.90;;;;;;4952584;28;20222;-74
2022/07/13 08:21:48;;;;;;;2.75;1.77;;;28.50;99.90;;;;;;4954088;28;20202;-74
2022/07/13 08:24:15;;;;;;;6.28;1.70;;;29.00;99.90;;;;;;4960422;28;20209;-73
2022/07/13 08:26:42;;;;;;;4.88;1.73;;;29.50;99.90;;;;;;4954688;28;20203;-73
2022/07/13 08:29:08;;;;;;;3.92;1.77;;;29.70;99.90;;;;;;4957809;28;20646;-73
2022/07/13 08:31:35;;;;;;;5.65;1.77;;;30.20;99.90;;;;;;4955881;28;20196;-73
2022/07/13 08:39:33;;;;;;;3.25;1.70;;;30.30;99.90;;;;;;4955893;28;20232;-73
2022/07/13 08:42:00;;;;;;;3.22;1.55;;;30.30;99.90;;;;;;4953656;28;20272;-73
2022/07/13 08:44:27;;;;;;;2.70;1.65;;;30.20;99.90;;;;;;4961121;28;20299;-73
2022/07/13 08:46:54;;;;;;;4.53;1.80;;;30.30;99.90;;;;;;4956111;28;20202;-74
2022/07/13 08:49:22;;;;;;;3.85;1.60;;;30.60;99.90;;;;;;4956512;28;20225;-71
2022/07/13 08:51:51;;;;;;;5.40;1.67;;;31.00;99.90;;;;;;4954952;28;20198;-73
2022/07/13 08:54:17;;;;;;;2.03;1.65;;;31.30;99.90;;;;;;4952628;28;20217;-71
2022/07/13 08:56:44;;;;;;;2.75;1.63;;;31.00;99.90;;;;;;4957905;28;20221;-73
2022/07/13 08:59:12;;;;;;;5.97;1.60;;;30.70;99.90;;;;;;4956732;28;20228;-72
2022/07/13 09:01:39;;;;;;;4.63;1.77;;;30.70;99.90;;;;;;4955878;28;20206;-72
2022/07/13 09:04:11;;;;;;;3.10;1.80;;;30.80;99.90;;;;;;4957047;28;20202;-72
2022/07/13 09:06:45;;;;;;;4.47;1.80;;;31.10;99.90;;;;;;4955751;28;20202;-73
2022/07/13 09:09:36;;;;;;;3.00;1.60;;;31.70;99.90;;;;;;4956711;28;20228;-73
2022/07/13 09:12:26;;;;;;;4.15;1.80;;;31.90;99.90;;;;;;4958736;28;20198;-71
2022/07/13 09:14:54;;;;;;;2.53;1.55;;;31.90;99.90;;;;;;4959625;28;20577;-74
2022/07/13 09:17:43;;;;;;;5.75;1.83;;;32.10;99.90;;;;;;4961620;28;20607;-71
2022/07/13 09:20:10;;;;;;;5.53;2.25;;;32.40;99.90;;;;;;4959947;28;20202;-73
2022/07/13 09:22:52;;;;;;;4.70;2.53;;;32.70;99.90;;;;;;4958181;28;20233;-73
2022/07/13 09:25:30;;;;;;;4.28;2.13;;;32.70;99.90;;;;;;4960884;28;20261;-74
2022/07/13 09:28:02;;;;;;;3.40;2.20;;;33.30;99.90;;;;;;4957099;28;20654;-73
2022/07/13 09:30:29;;;;;;;4.03;2.00;;;33.60;99.90;;;;;;4956483;28;20203;-73
2022/07/13 09:32:57;;;;;;;3.05;2.17;;;34.00;99.90;;;;;;4955497;28;20214;-75
2022/07/13 09:35:46;;;;;;;5.75;1.80;;;34.30;99.90;;;;;;4957349;28;20686;-73
2022/07/13 09:38:29;;;;;;;5.63;2.00;;;34.10;98.90;;;;;;4959442;28;20221;-73
2022/07/13 09:40:56;;;;;;;3.92;1.90;;;34.30;99.30;;;;;;4960246;28;20597;-73
2022/07/13 09:46:08;;;;;;;9.95;2.13;;;33.90;98.90;;;;;;4958507;28;20202;-72
2022/07/13 09:48:38;;;;;;;6.88;1.90;;;33.60;99.50;;;;;;4954039;28;20230;-71
2022/07/13 09:51:06;;;;;;;4.75;1.90;;;33.80;98.90;;;;;;4956837;28;20729;-71
2022/07/13 09:53:33;;;;;;;5.72;1.35;;;33.70;98.60;;;;;;4965105;28;20198;-73
2022/07/13 09:56:02;;;;;;;2.50;1.50;;;33.70;98.20;;;;;;4957379;28;20194;-73
2022/07/13 09:58:34;;;;;;;3.55;1.90;;;33.90;98.20;;;;;;4957851;28;20232;-74
2022/07/13 10:01:03;;;;;;;2.72;1.77;;;34.10;98.30;;;;;;4964215;28;20284;-73
2022/07/13 10:03:31;;;;;;;1.63;1.38;;;34.10;97.50;;;;;;4961097;28;20198;-72
2022/07/13 10:06:01;;;;;;;2.33;1.42;;;33.80;98.40;;;;;;4957575;28;20667;-73
2022/07/13 10:08:28;;;;;;;3.60;1.70;;;34.10;97.80;;;;;;4955779;28;20234;-74
2022/07/13 10:10:55;;;;;;;2.05;1.38;;;34.30;98.30;;;;;;4958170;28;20240;-73
2022/07/13 10:13:22;;;;;;;2.22;1.40;;;34.90;98.30;;;;;;4957374;28;20368;-73
2022/07/13 10:15:49;;;;;;;3.42;1.40;;;35.20;96.90;;;;;;4958349;28;20200;-73
2022/07/13 10:18:39;;;;;;;3.45;1.70;;;35.50;96.60;;;;;;4960485;28;20218;-74
2022/07/13 10:21:15;;;;;;;6.97;1.60;;;35.90;95.00;;;;;;4958472;28;20202;-73
2022/07/13 10:23:42;;;;;;;2.47;1.60;;;36.20;95.30;;;;;;4955112;28;20202;-71
2022/07/13 10:26:24;;;;;;;3.60;1.65;;;36.20;95.40;;;;;;4954705;28;20198;-73
2022/07/13 10:29:04;;;;;;;5.88;1.40;;;36.10;94.40;;;;;;4967131;28;20233;-73
2022/07/13 10:31:36;;;;;;;2.92;1.50;;;35.90;94.40;;;;;;4953925;28;20233;-72
2022/07/13 10:34:05;;;;;;;3.55;1.30;;;35.80;94.20;;;;;;4957373;28;20202;-73
2022/07/13 10:36:54;;;;;;;6.03;1.73;;;35.60;96.10;;;;;;4960773;28;20224;-73
2022/07/13 10:39:23;;;;;;;2.15;1.45;;;35.60;96.40;;;;;;4959556;28;20225;-74
2022/07/13 10:42:03;;;;;;;4.18;1.40;;;36.00;95.30;;;;;;4953901;28;20674;-73
2022/07/13 10:44:43;;;;;;;1.63;1.20;;;36.30;93.20;;;;;;4954398;28;20659;-75
2022/07/13 10:47:12;;;;;;;1.55;1.20;;;36.60;92.50;;;;;;4958008;28;20673;-73
2022/07/13 10:49:47;;;;;;;2.67;1.60;;;36.50;93.10;;;;;;4953046;28;20214;-73
2022/07/13 10:52:25;;;;;;;2.75;1.40;;;36.50;92.20;;;;;;4960367;28;20192;-73
2022/07/13 10:55:03;;;;;;;3.33;1.25;;;36.40;92.70;;;;;;4964801;28;20293;-73
2022/07/13 10:57:31;;;;;;;3.15;1.30;;;36.70;92.10;;;;;;4962183;28;20224;-72
2022/07/13 11:00:28;;;;;;;2.03;1.35;;;36.70;92.90;;;;;;4953721;28;20205;-74
2022/07/13 11:03:05;;;;;;;1.30;1.20;;;36.90;92.00;;;;;;4962344;28;20205;-74
2022/07/13 11:05:36;;;;;;;3.03;1.15;;;36.80;91.00;;;;;;4959489;28;20227;-71
2022/07/13 11:08:14;;;;;;;2.35;1.50;;;36.00;91.50;;;;;;4957160;28;20705;-73
2022/07/13 11:10:41;;;;;;;2.58;2.10;;;35.10;92.20;;;;;;4962837;28;20208;-74
2022/07/13 11:13:12;;;;;;;3.05;1.50;;;34.80;92.20;;;;;;4961855;28;20208;-73
2022/07/13 11:15:55;;;;;;;2.38;1.15;;;34.70;93.20;;;;;;4955225;28;20205;-74
2022/07/13 11:18:28;;;;;;;1.38;1.27;;;34.50;93.00;;;;;;4958202;28;20222;-71
2022/07/13 11:20:58;;;;;;;2.25;1.40;;;33.90;92.50;;;;;;4953912;28;20210;-73
2022/07/13 11:26:39;;;;;;;3.60;1.35;;;33.60;93.10;;;;;;4953673;28;20201;-74
2022/07/13 11:29:20;;;;;;;2.55;1.30;;;33.50;92.50;;;;;;4955046;28;20230;-73
2022/07/13 11:31:55;;;;;;;1.35;1.15;;;33.70;91.90;;;;;;4956966;28;20205;-73
2022/07/13 11:34:23;;;;;;;3.65;1.20;;;33.80;90.90;;;;;;4956519;28;20653;-73
2022/07/13 11:36:52;;;;;;;3.42;1.70;;;33.80;92.10;;;;;;4954219;28;20206;-74
2022/07/13 11:39:33;;;;;;;2.03;1.80;;;33.50;92.50;;;;;;4951930;28;20301;-71
2022/07/13 11:42:02;;;;;;;2.60;1.33;;;33.30;92.80;;;;;;4957163;28;20681;-73
2022/07/13 11:44:30;;;;;;;5.32;1.40;;;33.00;93.20;;;;;;4960841;28;20209;-73
2022/07/13 11:47:00;;;;;;;1.30;1.20;;;32.90;94.20;;;;;;4958093;28;20209;-73
2022/07/13 11:49:27;;;;;;;3.22;1.50;;;32.90;93.10;;;;;;4953840;28;20299;-71
2022/07/13 11:51:54;;;;;;;4.30;1.30;;;33.00;92.90;;;;;;4964094;28;20196;-73
2022/07/13 11:54:22;;;;;;;1.30;1.20;;;33.00;92.40;;;;;;4952496;28;20225;-73
2022/07/13 11:56:56;;;;;;;4.18;1.33;;;33.30;92.70;;;;;;4961611;28;20197;-72
2022/07/13 11:59:35;;;;;;;8.65;1.27;;;33.40;92.00;;;;;;4957534;28;20237;-73
2022/07/13 12:02:14;;;;;;;2.33;1.60;;;33.30;91.30;;;;;;4959627;28;20201;-75
2022/07/13 12:04:42;;;;;;;2.95;1.10;;;33.00;91.80;;;;;;4954033;28;20674;-73
2022/07/13 12:07:17;;;;;;;1.20;1.10;;;32.90;91.80;;;;;;4954393;28;20209;-71
2022/07/13 12:09:54;;;;;;;1.83;1.20;;;33.00;91.40;;;;;;4953877;28;20232;-72
2022/07/13 12:12:30;;;;;;;0.98;0.82;;;33.00;90.80;;;;;;4954706;28;20201;-73
2022/07/13 12:14:58;;;;;;;2.35;1.58;;;33.20;91.00;;;;;;4958306;28;20197;-73
2022/07/13 12:17:28;;;;;;;1.30;0.90;;;33.40;91.00;;;;;;4966810;28;20198;-73
2022/07/13 12:20:15;;;;;;;2.05;1.20;;;33.60;88.80;;;;;;4953041;28;20195;-73
2022/07/13 12:23:08;;;;;;;1.65;1.08;;;33.80;90.20;;;;;;4952402;28;20206;-70
2022/07/13 12:25:37;;;;;;;1.20;1.10;;;34.00;90.30;;;;;;4957923;28;20220;-73
2022/07/13 12:28:06;;;;;;;4.82;1.10;;;34.20;90.00;;;;;;4954825;28;20217;-73
2022/07/13 12:30:34;;;;;;;1.42;1.33;;;34.40;89.00;;;;;;4953684;28;20229;-72
2022/07/13 12:33:09;;;;;;;4.05;1.10;;;34.70;88.70;;;;;;4953169;28;20242;-74
2022/07/13 12:35:38;;;;;;;2.67;1.20;;;34.80;85.90;;;;;;4951764;28;20206;-73
2022/07/13 12:38:11;;;;;;;1.10;0.95;;;34.80;86.40;;;;;;4961239;28;20214;-74
2022/07/13 12:40:55;;;;;;;1.48;0.95;;;34.80;86.70;;;;;;4953394;28;20210;-74
2022/07/13 12:43:27;;;;;;;1.10;1.00;;;34.70;85.30;;;;;;4958218;28;20210;-72
2022/07/13 12:45:58;;;;;;;0.85;0.80;;;34.70;86.20;;;;;;4963913;28;20674;-73
2022/07/13 12:48:33;;;;;;;1.25;1.02;;;34.80;86.80;;;;;;4956397;28;20225;-72
2022/07/13 12:51:05;;;;;;;1.75;1.10;;;35.10;86.40;;;;;;4953519;28;20669;-75
2022/07/13 12:53:53;;;;;;;2.28;0.82;;;35.20;84.10;;;;;;4952557;28;20194;-71
2022/07/13 12:56:27;;;;;;;3.92;1.00;;;35.30;87.40;;;;;;4958703;28;20261;-71
2022/07/13 12:58:56;;;;;;;1.95;1.00;;;35.20;81.20;;;;;;4951538;28;20273;-71
2022/07/13 13:01:27;;;;;;;1.25;1.13;;;35.20;82.90;;;;;;4954837;28;20202;-71
2022/07/13 13:03:54;;;;;;;2.35;1.00;;;35.40;81.40;;;;;;4958332;28;20193;-69
2022/07/13 13:06:27;;;;;;;3.13;0.70;;;35.80;82.50;;;;;;4950585;28;20202;-69
2022/07/13 13:09:10;;;;;;;2.75;1.02;;;36.10;79.70;;;;;;4954771;28;20225;-70